地図

経路データ

SID SEASON NUMBER BASIN SUBBASIN NAME ISO_TIME NATURE LAT LON WMO_WIND WMO_PRES WMO_AGENCY TRACK_TYPE DIST2LAND LANDFALL IFLAG USA_AGENCY USA_ATCF_ID USA_LAT USA_LON USA_RECORD USA_STATUS USA_WIND USA_PRES USA_SSHS USA_R34_NE USA_R34_SE USA_R34_SW USA_R34_NW USA_R50_NE USA_R50_SE USA_R50_SW USA_R50_NW USA_R64_NE USA_R64_SE USA_R64_SW USA_R64_NW USA_POCI USA_ROCI USA_RMW USA_EYE TOKYO_LAT TOKYO_LON TOKYO_GRADE TOKYO_WIND TOKYO_PRES TOKYO_R50_DIR TOKYO_R50_LONG TOKYO_R50_SHORT TOKYO_R30_DIR TOKYO_R30_LONG TOKYO_R30_SHORT TOKYO_LAND CMA_LAT CMA_LON CMA_CAT CMA_WIND CMA_PRES HKO_LAT HKO_LON HKO_CAT HKO_WIND HKO_PRES NEWDELHI_LAT NEWDELHI_LON NEWDELHI_GRADE NEWDELHI_WIND NEWDELHI_PRES NEWDELHI_CI NEWDELHI_DP NEWDELHI_POCI REUNION_LAT REUNION_LON REUNION_TYPE REUNION_WIND REUNION_PRES REUNION_TNUM REUNION_CI REUNION_RMW REUNION_R34_NE REUNION_R34_SE REUNION_R34_SW REUNION_R34_NW REUNION_R50_NE REUNION_R50_SE REUNION_R50_SW REUNION_R50_NW REUNION_R64_NE REUNION_R64_SE REUNION_R64_SW REUNION_R64_NW BOM_LAT BOM_LON BOM_TYPE BOM_WIND BOM_PRES BOM_TNUM BOM_CI BOM_RMW BOM_R34_NE BOM_R34_SE BOM_R34_SW BOM_R34_NW BOM_R50_NE BOM_R50_SE BOM_R50_SW BOM_R50_NW BOM_R64_NE BOM_R64_SE BOM_R64_SW BOM_R64_NW BOM_ROCI BOM_POCI BOM_EYE BOM_POS_METHOD BOM_PRES_METHOD NADI_LAT NADI_LON NADI_CAT NADI_WIND NADI_PRES WELLINGTON_LAT WELLINGTON_LON WELLINGTON_WIND WELLINGTON_PRES DS824_LAT DS824_LON DS824_STAGE DS824_WIND DS824_PRES TD9636_LAT TD9636_LON TD9636_STAGE TD9636_WIND TD9636_PRES TD9635_LAT TD9635_LON TD9635_WIND TD9635_PRES TD9635_ROCI NEUMANN_LAT NEUMANN_LON NEUMANN_CLASS NEUMANN_WIND NEUMANN_PRES MLC_LAT MLC_LON MLC_CLASS MLC_WIND MLC_PRES USA_GUST BOM_GUST BOM_GUST_PER REUNION_GUST REUNION_GUST_PER USA_SEAHGT USA_SEARAD_NE USA_SEARAD_SE USA_SEARAD_SW USA_SEARAD_NW STORM_SPEED STORM_DIR
1892112S10064 1892 14 SI MM NOT_NAMED 1892-04-21 06:00:00 NR -10.1000 63.8000 reunion spur-split 1296 1291 _____O________ -1 -10.1000 63.8000 99 9.90000 2 254
1892112S10064 1892 14 SI MM NOT_NAMED 1892-04-21 09:00:00 NR -10.1346 63.6823 spur-split 1291 1275 _____P________ -1 -10.1346 63.6823 99 3 253
1892112S10064 1892 14 SI MM NOT_NAMED 1892-04-21 12:00:00 NR -10.1742 63.5510 spur-split 1275 1265 _____P________ -1 -10.1742 63.5510 99 3 253
1892112S10064 1892 14 SI MM NOT_NAMED 1892-04-21 15:00:00 NR -10.2239 63.3921 spur-split 1265 1245 _____P________ -1 -10.2239 63.3921 99 4 252
1892112S10064 1892 14 SI MM NOT_NAMED 1892-04-21 18:00:00 NR -10.2889 63.1920 spur-split 1245 1225 _____P________ -1 -10.2889 63.1920 99 5 251
1892112S10064 1892 14 SI MM NOT_NAMED 1892-04-21 21:00:00 NR -10.3740 62.9367 spur-split 1220 1195 _____P________ -1 -10.3740 62.9367 99 6 251
1892112S10064 1892 14 SI MM NOT_NAMED 1892-04-22 00:00:00 NR -10.4844 62.6124 spur-split 1195 1167 _____P________ -1 -10.4844 62.6124 99 8 251
1892112S10064 1892 14 SI MM NOT_NAMED 1892-04-22 03:00:00 NR -10.6248 62.2049 spur-split 1167 1125 _____P________ -1 -10.6248 62.2049 99 10 251
1892112S10064 1892 14 SI MM NOT_NAMED 1892-04-22 06:00:00 NR -10.8000 61.7000 reunion spur-split 1125 1081 _____O________ -1 -10.8000 61.7000 99 9.90000 12 250
1892112S10064 1892 14 SI MM NOT_NAMED 1892-04-22 09:00:00 NR -11.0135 61.0907 spur-split 1081 1037 _____P________ -1 -11.0135 61.0907 99 14 250
1892112S10064 1892 14 SI MM NOT_NAMED 1892-04-22 12:00:00 NR -11.2636 60.3991 spur-split 1026 986 _____P________ -1 -11.2636 60.3991 99 15 249
1892112S10064 1892 14 SI MM NOT_NAMED 1892-04-22 15:00:00 NR -11.5476 59.6550 spur-split 986 937 _____P________ -1 -11.5476 59.6550 99 16 248
1892112S10064 1892 14 SI MM NOT_NAMED 1892-04-22 18:00:00 NR -11.8632 58.8884 spur-split 926 885 _____P________ -1 -11.8632 58.8884 99 16 246
1892112S10064 1892 14 SI MM NOT_NAMED 1892-04-22 21:00:00 NR -12.2079 58.1293 spur-split 885 799 _____P________ -1 -12.2079 58.1293 99 16 244
1892112S10064 1892 14 SI MM NOT_NAMED 1892-04-23 00:00:00 NR -12.5800 57.4080 spur-split 799 722 _____P________ -1 -12.5800 57.4080 99 16 240
1892112S10064 1892 14 SI MM NOT_NAMED 1892-04-23 03:00:00 NR -12.9777 56.7548 spur-split 722 646 _____P________ -1 -12.9777 56.7548 99 14 235
1892112S10064 1892 14 SI MM NOT_NAMED 1892-04-23 06:00:00 NR -13.4000 56.2000 reunion spur-split 646 591 _____O________ -1 -13.4000 56.2000 99 9.90000 13 227
1892112S10064 1892 14 SI MM NOT_NAMED 1892-04-23 09:00:00 NR -13.8625 55.7855 spur-split 588 547 _____P________ -1 -13.8625 55.7855 99 12 217
1892112S10064 1892 14 SI MM NOT_NAMED 1892-04-23 12:00:00 NR -14.3591 55.4539 spur-split 545 507 _____P________ -1 -14.3591 55.4539 99 12 209
1892112S10064 1892 14 SI MM NOT_NAMED 1892-04-23 15:00:00 NR -14.8783 55.2014 spur-split 506 482 _____P________ -1 -14.8783 55.2014 99 11 202
1892112S10064 1892 14 SI MM NOT_NAMED 1892-04-23 18:00:00 NR -15.4084 55.0244 spur-split 482 473 _____P________ -1 -15.4084 55.0244 99 11 194
1892112S10064 1892 14 SI MM NOT_NAMED 1892-04-23 21:00:00 NR -15.9376 54.9192 spur-split 474 474 _____P________ -1 -15.9376 54.9192 99 11 187
1892112S10064 1892 14 SI MM NOT_NAMED 1892-04-24 00:00:00 NR -16.4539 54.8825 spur-split 486 450 _____P________ -1 -16.4539 54.8825 99 10 181
1892112S10064 1892 14 SI MM NOT_NAMED 1892-04-24 03:00:00 NR -16.9454 54.9106 spur-split 450 400 _____P________ -1 -16.9454 54.9106 99 10 173
1892112S10064 1892 14 SI MM NOT_NAMED 1892-04-24 06:00:00 NR -17.4000 55.0000 reunion spur-split 400 370 _____O________ -1 -17.4000 55.0000 99 9.90000 8 173
1892112S10064 1892 14 SI MM NOT_NAMED 1892-04-24 09:00:00 NR -17.7304 55.0073 spur-split 370 336 _____P________ -1 -17.7304 55.0073 99 6 174
1892112S10064 1892 14 SI MM NOT_NAMED 1892-04-24 12:00:00 NR -18.0218 55.0734 spur-split 336 302 _____P________ -1 -18.0218 55.0734 99 6 161
1892112S10064 1892 14 SI MM NOT_NAMED 1892-04-24 15:00:00 NR -18.2895 55.2069 spur-split 302 279 _____P________ -1 -18.2895 55.2069 99 6 148
1892112S10064 1892 14 SI MM NOT_NAMED 1892-04-24 18:00:00 NR -18.5486 55.4165 spur-split 279 238 _____P________ -1 -18.5486 55.4165 99 7 138
1892112S10064 1892 14 SI MM NOT_NAMED 1892-04-24 21:00:00 NR -18.8144 55.7111 spur-split 238 184 _____P________ -1 -18.8144 55.7111 99 9 131
1892112S10064 1892 14 SI MM NOT_NAMED 1892-04-25 00:00:00 NR -19.1016 56.1001 spur-split 184 122 _____P________ -1 -19.1016 56.1001 99 10 126
1892112S10064 1892 14 SI MM NOT_NAMED 1892-04-25 03:00:00 NR -19.4253 56.5930 spur-split 122 45 _____P________ -1 -19.4253 56.5930 99 13 124
1892112S10064 1892 14 SI MM NOT_NAMED 1892-04-25 06:00:00 NR -19.8000 57.2000 reunion spur-split 45 0 _____O________ -1 -19.8000 57.2000 99 9.90000 17 124
1892112S10064 1892 14 SI MM NOT_NAMED 1892-04-25 09:00:00 NR -20.3492 58.0488 spur-split 20 20 _____P________ -1 -20.3492 58.0488 99 21 124
1892112S10064 1892 14 SI MM NOT_NAMED 1892-04-25 12:00:00 NR -20.9512 59.0417 spur-split 146 146 _____P________ -1 -20.9512 59.0417 99 23 122
1892112S10064 1892 14 SI MM NOT_NAMED 1892-04-25 15:00:00 NR -21.5804 60.1340 spur-split 277 277 _____P________ -1 -21.5804 60.1340 99 24 121
1892112S10064 1892 14 SI MM NOT_NAMED 1892-04-25 18:00:00 NR -22.2118 61.2792 spur-split 418 418 _____P________ -1 -22.2118 61.2792 99 25 120
1892112S10064 1892 14 SI MM NOT_NAMED 1892-04-25 21:00:00 NR -22.8214 62.4290 spur-split 549 549 _____P________ -1 -22.8214 62.4290 99 24 119
1892112S10064 1892 14 SI MM NOT_NAMED 1892-04-26 00:00:00 NR -23.3863 63.5333 spur-split 680 680 _____P________ -1 -23.3863 63.5333 99 22 119
1892112S10064 1892 14 SI MM NOT_NAMED 1892-04-26 03:00:00 NR -23.8857 64.5410 spur-split 796 796 _____P________ -1 -23.8857 64.5410 99 19 118
1892112S10064 1892 14 SI MM NOT_NAMED 1892-04-26 06:00:00 NR -24.3000 65.4000 reunion spur-split 897 897 _____O________ -1 -24.3000 65.4000 99 9.90000 16 118
1892112S10064 1892 14 SI MM NOT_NAMED 1892-04-26 09:00:00 NR -24.6164 66.0708 spur-split 976 976 _____P________ -1 -24.6164 66.0708 99 12 117
1892112S10064 1892 14 SI MM NOT_NAMED 1892-04-26 12:00:00 NR -24.8443 66.5645 spur-split 1031 1031 _____P________ -1 -24.8443 66.5645 99 8 117
1892112S10064 1892 14 SI MM NOT_NAMED 1892-04-26 15:00:00 NR -24.9980 66.9054 spur-split 1068 1068 _____P________ -1 -24.9980 66.9054 99 6 116
1892112S10064 1892 14 SI MM NOT_NAMED 1892-04-26 18:00:00 NR -25.0908 67.1184 spur-split 1091 1091 _____P________ -1 -25.0908 67.1184 99 3 115
1892112S10064 1892 14 SI MM NOT_NAMED 1892-04-26 21:00:00 NR -25.1352 67.2288 spur-split 1100 1100 _____P________ -1 -25.1352 67.2288 99 1 112
1892112S10064 1892 14 SI MM NOT_NAMED 1892-04-27 00:00:00 NR -25.1435 67.2621 spur-split 1109 1100 _____P________ -1 -25.1435 67.2621 99 0 0
1892112S10064 1892 14 SI MM NOT_NAMED 1892-04-27 03:00:00 NR -25.1278 67.2439 spur-split 1100 1100 _____P________ -1 -25.1278 67.2439 99 1 309
1892112S10064 1892 14 SI MM NOT_NAMED 1892-04-27 06:00:00 NR -25.1000 67.2000 reunion spur-split 1100 _____O________ -1 -25.1000 67.2000 99 9.90000 1 315

IBTrACS Databaseについて

本データベースは、米国NOAAが公開する1842年以降の世界の熱帯低気圧のベストトラックデータアーカイブInternational Best Track Archive for Climate Stewardship (IBTrACS)を、ウェブで閲覧しやすい形式に変換したものです。

最終更新日:2021-11-26